Terminal Aerodrome Forecast
Issued by NWS Charleston, WV

Current Version | Previous Version | Text Only | Print | Product List | Glossary On
Versions: 1 2 3 4 5 6 7 8 9 10 11 12 13 14 15 16 17 18 19 20 21 22 23
961
FTUS41 KRLX 010216 AAA
TAFPKB
TAF AMD
KPKB 010216Z 0102/0124 VRB03KT P6SM VCTS BKN060CB
     FM010500 00000KT P6SM BKN035
     FM010800 00000KT 4SM BR BKN025
     FM011400 36005KT P6SM BKN025
     FM011600 36005KT P6SM SCT035=

USA.gov is the U.S. government's official web portal to all federal, state and local government web resources and services.